createdAt,value
2022-08-26T00:01:56.419Z,94.30
2022-08-26T00:04:25.982Z,93.90
2022-08-26T00:06:57.424Z,93.70
2022-08-26T00:09:26.260Z,93.30
2022-08-26T00:11:54.820Z,93.00
2022-08-26T00:14:28.257Z,93.20
2022-08-26T00:16:58.027Z,92.80
2022-08-26T00:19:25.751Z,92.90
2022-08-26T00:21:54.397Z,93.10
2022-08-26T00:24:23.799Z,93.20
2022-08-26T00:26:51.855Z,93.80
2022-08-26T00:29:19.530Z,95.80
2022-08-26T00:31:48.971Z,96.50
2022-08-26T00:34:19.503Z,99.10
2022-08-26T00:36:50.882Z,99.60
2022-08-26T00:39:20.406Z,99.90
2022-08-26T00:41:48.569Z,99.90
2022-08-26T00:44:16.363Z,99.90
2022-08-26T00:46:49.629Z,99.90
2022-08-26T00:49:22.121Z,99.90
2022-08-26T00:51:55.864Z,99.90
2022-08-26T00:54:27.089Z,99.90
2022-08-26T00:57:16.396Z,99.90
2022-08-26T00:59:48.724Z,99.90
2022-08-26T01:02:21.152Z,99.90
2022-08-26T01:04:52.629Z,99.90
2022-08-26T01:07:25.781Z,99.90
2022-08-26T01:09:53.387Z,99.90
2022-08-26T01:12:22.372Z,99.90
2022-08-26T01:14:50.461Z,99.90
2022-08-26T01:17:18.635Z,99.90
2022-08-26T01:19:50.893Z,99.90
2022-08-26T01:22:31.572Z,99.90
2022-08-26T01:25:03.522Z,99.90
2022-08-26T01:27:33.638Z,99.90
2022-08-26T01:30:02.754Z,99.90
2022-08-26T01:32:32.203Z,99.90
2022-08-26T01:34:59.956Z,99.90
2022-08-26T01:37:33.942Z,99.90
2022-08-26T01:40:01.431Z,99.90
2022-08-26T01:42:29.665Z,99.90
2022-08-26T01:45:05.883Z,99.90
2022-08-26T01:47:35.864Z,99.90
2022-08-26T01:50:07.974Z,99.90
2022-08-26T01:52:38.611Z,99.90
2022-08-26T01:55:07.186Z,99.90
2022-08-26T01:57:36.582Z,99.90
2022-08-26T02:00:11.299Z,99.90
2022-08-26T02:02:38.812Z,99.90
2022-08-26T02:05:11.256Z,99.90
2022-08-26T02:07:40.117Z,99.90
2022-08-26T02:10:08.367Z,99.90
2022-08-26T02:12:36.778Z,99.90
2022-08-26T02:15:11.066Z,99.90
2022-08-26T02:17:46.243Z,99.90
2022-08-26T02:20:17.531Z,99.90
2022-08-26T02:22:45.690Z,99.90
2022-08-26T02:25:28.656Z,99.90
2022-08-26T02:27:57.124Z,99.90
2022-08-26T02:30:32.312Z,99.90
2022-08-26T02:33:07.330Z,99.90
2022-08-26T02:35:36.271Z,99.90
2022-08-26T02:38:10.108Z,99.90
2022-08-26T02:40:41.348Z,99.90
2022-08-26T02:43:10.000Z,99.90
2022-08-26T02:45:37.605Z,99.90
2022-08-26T02:48:16.558Z,99.90
2022-08-26T02:50:46.739Z,99.90
2022-08-26T02:53:15.768Z,99.90
2022-08-26T02:55:43.497Z,99.90
2022-08-26T02:58:11.694Z,99.90
2022-08-26T03:00:39.871Z,99.90
2022-08-26T03:03:22.471Z,99.90
2022-08-26T03:05:51.834Z,99.90
2022-08-26T03:08:19.530Z,99.90
2022-08-26T03:10:48.172Z,99.90
2022-08-26T03:13:17.045Z,99.90
2022-08-26T03:15:45.927Z,99.90
2022-08-26T03:18:15.269Z,99.90
2022-08-26T03:20:42.710Z,99.90
2022-08-26T03:23:11.527Z,99.90
2022-08-26T03:25:40.459Z,99.90
2022-08-26T03:28:07.934Z,99.90
2022-08-26T03:30:45.507Z,99.90
2022-08-26T03:33:14.225Z,99.90
2022-08-26T03:35:44.219Z,99.90
2022-08-26T03:38:12.028Z,99.90
2022-08-26T03:40:40.473Z,99.90
2022-08-26T03:43:10.256Z,99.90
2022-08-26T03:45:38.510Z,99.90
2022-08-26T03:48:06.191Z,99.90
2022-08-26T03:50:35.798Z,99.80
2022-08-26T03:53:04.612Z,99.60
2022-08-26T03:55:34.987Z,99.70
2022-08-26T03:58:02.871Z,99.70
2022-08-26T04:00:31.345Z,99.50
2022-08-26T04:02:58.726Z,99.70
2022-08-26T04:05:26.107Z,99.90
2022-08-26T04:07:55.514Z,99.90
2022-08-26T04:10:28.488Z,99.90
2022-08-26T04:12:58.781Z,99.90
2022-08-26T04:15:27.344Z,99.60
2022-08-26T04:17:55.803Z,99.50
2022-08-26T04:20:23.504Z,99.70
2022-08-26T04:22:51.174Z,99.50
2022-08-26T04:25:19.042Z,99.60
2022-08-26T04:27:48.430Z,99.80
2022-08-26T04:30:16.647Z,99.40
2022-08-26T04:32:44.362Z,99.90
2022-08-26T04:35:12.212Z,99.00
2022-08-26T04:37:39.827Z,98.80
2022-08-26T04:40:11.817Z,98.50
2022-08-26T04:42:39.242Z,98.30
2022-08-26T04:45:10.419Z,98.40
2022-08-26T04:47:39.127Z,98.00
2022-08-26T04:50:07.713Z,97.60
2022-08-26T04:52:36.964Z,99.00
2022-08-26T04:55:06.652Z,96.20
2022-08-26T04:57:35.977Z,95.20
2022-08-26T05:00:07.293Z,95.40
2022-08-26T05:02:34.931Z,95.00
2022-08-26T05:05:02.682Z,94.50
2022-08-26T05:07:31.901Z,94.80
2022-08-26T05:09:59.423Z,94.10
2022-08-26T05:12:28.132Z,93.40
2022-08-26T05:14:55.722Z,93.30
2022-08-26T05:17:23.234Z,92.70
2022-08-26T05:19:50.992Z,93.30
2022-08-26T05:22:18.420Z,92.80
2022-08-26T05:24:46.878Z,92.30
2022-08-26T05:27:15.274Z,92.20
2022-08-26T05:29:42.724Z,91.70
2022-08-26T05:32:12.194Z,92.10
2022-08-26T05:34:39.594Z,92.00
2022-08-26T05:37:10.354Z,90.50
2022-08-26T05:39:43.526Z,89.70
2022-08-26T05:42:20.073Z,88.10
2022-08-26T05:44:55.351Z,87.40
2022-08-26T05:47:24.686Z,87.50
2022-08-26T05:49:52.205Z,87.80
2022-08-26T05:52:20.672Z,87.90
2022-08-26T05:54:48.350Z,88.40
2022-08-26T05:57:16.168Z,88.00
2022-08-26T05:59:46.502Z,88.70
2022-08-26T06:02:14.111Z,88.70
2022-08-26T06:04:41.688Z,88.40
2022-08-26T06:07:11.593Z,88.90
2022-08-26T06:09:40.517Z,88.50
2022-08-26T06:12:08.067Z,88.00
2022-08-26T06:14:36.671Z,88.10
2022-08-26T06:17:04.670Z,87.40
2022-08-26T06:19:32.736Z,87.60
2022-08-26T06:22:23.312Z,87.10
2022-08-26T06:25:09.467Z,86.70
2022-08-26T06:27:37.473Z,85.10
2022-08-26T06:30:05.593Z,84.70
2022-08-26T06:32:33.901Z,84.50
2022-08-26T06:35:01.610Z,84.30
2022-08-26T06:37:29.009Z,84.80
2022-08-26T06:39:56.697Z,81.00
2022-08-26T06:42:25.069Z,79.60
2022-08-26T06:44:52.479Z,78.30
2022-08-26T06:47:19.978Z,78.90
2022-08-26T06:49:48.643Z,79.70
2022-08-26T06:52:22.919Z,79.90
2022-08-26T06:54:52.364Z,78.80
2022-08-26T06:57:20.507Z,76.80
2022-08-26T06:59:48.885Z,76.60
2022-08-26T07:02:18.822Z,76.50
2022-08-26T07:04:47.849Z,76.50
2022-08-26T07:07:16.067Z,75.50
2022-08-26T07:09:43.685Z,74.80
2022-08-26T07:12:11.113Z,74.30
2022-08-26T07:14:38.591Z,73.90
2022-08-26T07:17:11.017Z,73.90
2022-08-26T07:19:41.267Z,74.50
2022-08-26T07:22:09.027Z,75.10
2022-08-26T07:24:42.438Z,75.90
2022-08-26T07:27:14.107Z,75.60
2022-08-26T07:29:43.995Z,74.30
2022-08-26T07:32:13.815Z,74.50
2022-08-26T07:34:42.433Z,74.50
2022-08-26T07:37:10.681Z,74.40
2022-08-26T07:39:38.689Z,73.50
2022-08-26T07:42:09.289Z,73.50
2022-08-26T07:44:38.678Z,72.60
2022-08-26T07:47:25.573Z,72.10
2022-08-26T07:49:55.598Z,73.00
2022-08-26T07:52:26.905Z,72.80
2022-08-26T07:54:59.881Z,72.00
2022-08-26T07:57:28.753Z,71.90
2022-08-26T07:59:56.787Z,72.30
2022-08-26T08:02:25.593Z,72.30
2022-08-26T08:04:54.855Z,71.40
2022-08-26T08:07:38.507Z,71.00
2022-08-26T08:10:13.788Z,71.30
2022-08-26T08:12:43.098Z,70.70
2022-08-26T08:15:14.553Z,70.20
2022-08-26T08:17:46.194Z,70.00
2022-08-26T08:20:18.850Z,69.30
2022-08-26T08:22:47.151Z,70.00
2022-08-26T08:25:14.987Z,69.90
2022-08-26T08:27:45.502Z,69.50
2022-08-26T08:30:14.393Z,69.00
2022-08-26T08:32:43.841Z,66.90
2022-08-26T08:35:14.052Z,67.20
2022-08-26T08:37:42.270Z,66.40
2022-08-26T08:40:12.476Z,67.30
2022-08-26T08:42:55.371Z,66.00
2022-08-26T08:45:37.454Z,65.20
2022-08-26T08:48:13.427Z,65.60
2022-08-26T08:50:56.956Z,64.90
2022-08-26T08:53:37.961Z,66.40
2022-08-26T08:56:23.952Z,66.10
2022-08-26T08:59:04.243Z,65.20
2022-08-26T09:01:53.931Z,65.40
2022-08-26T09:04:47.348Z,66.00
2022-08-26T09:07:34.518Z,65.30
2022-08-26T09:10:22.558Z,64.60
2022-08-26T09:12:51.511Z,64.80
2022-08-26T09:15:34.645Z,63.60
2022-08-26T09:18:16.668Z,63.80
2022-08-26T09:20:59.477Z,63.50
2022-08-26T09:23:27.273Z,63.60
2022-08-26T09:25:58.145Z,63.80
2022-08-26T09:28:28.761Z,63.00
2022-08-26T09:31:32.779Z,61.90
2022-08-26T09:34:09.041Z,62.60
2022-08-26T09:36:41.377Z,63.30
2022-08-26T09:39:28.389Z,63.60
2022-08-26T09:42:06.795Z,62.70
2022-08-26T09:44:35.995Z,63.20
2022-08-26T09:47:07.225Z,62.70
2022-08-26T09:49:40.197Z,62.50
2022-08-26T09:52:13.879Z,61.90
2022-08-26T09:54:44.269Z,60.50
2022-08-26T09:57:25.192Z,61.80
2022-08-26T09:59:53.159Z,61.00
2022-08-26T10:02:38.108Z,59.50
2022-08-26T10:05:16.197Z,59.00
2022-08-26T10:07:50.285Z,58.40
2022-08-26T10:10:26.522Z,58.40
2022-08-26T10:13:29.555Z,57.90
2022-08-26T10:16:25.787Z,59.20
2022-08-26T10:19:06.840Z,60.00
2022-08-26T10:22:29.088Z,59.70
2022-08-26T10:24:59.671Z,59.60
2022-08-26T10:27:54.308Z,58.40
2022-08-26T10:30:24.643Z,56.30
2022-08-26T10:33:10.503Z,56.30
2022-08-26T10:35:50.408Z,55.80
2022-08-26T10:38:23.082Z,57.30
2022-08-26T10:41:10.364Z,57.20
2022-08-26T10:43:41.072Z,56.60
2022-08-26T10:46:17.589Z,54.70
2022-08-26T10:49:06.799Z,56.20
2022-08-26T10:51:45.753Z,57.40
2022-08-26T10:54:22.463Z,56.20
2022-08-26T10:57:09.607Z,55.30
2022-08-26T10:59:53.869Z,54.60
2022-08-26T11:02:26.273Z,55.40
2022-08-26T11:04:59.963Z,55.50
2022-08-26T11:07:52.747Z,55.80
2022-08-26T11:10:23.151Z,54.80
2022-08-26T11:13:20.194Z,54.50
2022-08-26T11:16:08.669Z,55.80
2022-08-26T11:18:44.714Z,55.30
2022-08-26T11:22:19.749Z,54.30
2022-08-26T11:24:53.352Z,55.20
2022-08-26T11:27:26.438Z,54.60
2022-08-26T11:30:01.951Z,54.80
2022-08-26T11:32:35.191Z,54.30
2022-08-26T11:35:17.737Z,54.90
2022-08-26T11:38:04.241Z,55.30
2022-08-26T11:40:38.800Z,55.20
2022-08-26T11:43:11.549Z,55.40
2022-08-26T11:45:44.988Z,55.20
2022-08-26T11:48:19.507Z,54.70
2022-08-26T11:51:01.347Z,55.50
2022-08-26T11:53:33.341Z,55.80
2022-08-26T11:56:05.134Z,54.30
2022-08-26T11:58:33.030Z,54.80
2022-08-26T12:01:09.774Z,53.70
2022-08-26T12:03:39.033Z,54.60
2022-08-26T12:06:22.638Z,52.90
2022-08-26T12:08:52.328Z,53.20
2022-08-26T12:11:24.709Z,51.90
2022-08-26T12:14:01.074Z,52.50
2022-08-26T12:16:31.340Z,52.40
2022-08-26T12:18:59.512Z,51.60
2022-08-26T12:21:31.524Z,50.90
2022-08-26T12:24:04.561Z,50.50
2022-08-26T12:26:37.476Z,51.70
2022-08-26T12:29:27.154Z,51.90
2022-08-26T12:32:17.872Z,52.80
2022-08-26T12:34:47.762Z,54.30
2022-08-26T12:37:16.316Z,54.40
2022-08-26T12:39:47.320Z,55.60
2022-08-26T12:42:17.536Z,56.50
2022-08-26T12:44:54.134Z,57.10
2022-08-26T12:47:42.925Z,57.00
2022-08-26T12:50:30.821Z,55.80
2022-08-26T12:53:12.194Z,55.10
2022-08-26T12:55:44.121Z,56.30
2022-08-26T12:58:11.648Z,54.40
2022-08-26T13:00:42.600Z,54.30
2022-08-26T13:03:38.847Z,54.40
2022-08-26T13:06:30.332Z,53.70
2022-08-26T13:09:22.247Z,53.40
2022-08-26T13:11:49.610Z,54.10
2022-08-26T13:14:24.244Z,53.50
2022-08-26T13:16:53.410Z,52.20
2022-08-26T13:19:24.006Z,50.80
2022-08-26T13:21:57.323Z,51.20
2022-08-26T13:24:38.652Z,51.60
2022-08-26T13:27:09.373Z,50.60
2022-08-26T13:29:37.055Z,51.20
2022-08-26T13:32:06.451Z,50.50
2022-08-26T13:34:35.648Z,51.10
2022-08-26T13:37:03.732Z,51.00
2022-08-26T13:39:31.297Z,50.70
2022-08-26T13:41:59.091Z,50.60
2022-08-26T13:44:26.608Z,51.20
2022-08-26T13:46:54.707Z,50.80
2022-08-26T13:49:22.943Z,51.90
2022-08-26T13:51:50.500Z,53.20
2022-08-26T13:54:18.090Z,54.60
2022-08-26T13:56:45.574Z,54.70
2022-08-26T13:59:12.955Z,55.20
2022-08-26T14:01:40.661Z,55.50
2022-08-26T14:04:08.977Z,55.20
2022-08-26T14:06:36.535Z,54.80
2022-08-26T14:09:04.773Z,54.90
2022-08-26T14:11:50.866Z,55.70
2022-08-26T14:14:19.819Z,56.90
2022-08-26T14:16:58.648Z,56.20
2022-08-26T14:19:30.395Z,56.60
2022-08-26T14:21:59.619Z,56.30
2022-08-26T14:24:27.178Z,55.80
2022-08-26T14:26:54.696Z,55.30
2022-08-26T14:29:22.266Z,55.60
2022-08-26T14:31:49.857Z,56.10
2022-08-26T14:34:17.459Z,54.80
2022-08-26T14:36:44.904Z,54.80
2022-08-26T14:39:13.896Z,54.60
2022-08-26T14:41:53.931Z,53.80
2022-08-26T14:44:26.139Z,52.70
2022-08-26T14:46:54.991Z,52.50
2022-08-26T14:49:23.961Z,54.70
2022-08-26T14:51:51.342Z,54.60
2022-08-26T14:54:20.132Z,55.40
2022-08-26T14:56:51.626Z,55.20
2022-08-26T14:59:23.223Z,55.70
2022-08-26T15:01:50.827Z,56.30
2022-08-26T15:04:19.623Z,56.80
2022-08-26T15:06:47.355Z,57.30
2022-08-26T15:09:15.343Z,57.60
2022-08-26T15:11:47.657Z,57.40
2022-08-26T15:14:19.650Z,58.20
2022-08-26T15:16:52.867Z,59.20
2022-08-26T15:19:21.267Z,59.20
2022-08-26T15:21:49.428Z,59.60
2022-08-26T15:24:22.313Z,60.10
2022-08-26T15:26:50.423Z,60.70
2022-08-26T15:29:18.642Z,61.30
2022-08-26T15:31:46.943Z,61.70
2022-08-26T15:34:16.958Z,61.80
2022-08-26T15:36:47.066Z,62.10
2022-08-26T15:39:17.403Z,62.70
2022-08-26T15:41:45.786Z,62.90
2022-08-26T15:44:14.632Z,62.30
2022-08-26T15:46:42.812Z,62.90
2022-08-26T15:49:18.548Z,63.20
2022-08-26T15:51:48.352Z,63.50
2022-08-26T15:54:17.999Z,64.30
2022-08-26T15:56:47.945Z,64.30
2022-08-26T15:59:16.516Z,64.40
2022-08-26T16:01:44.502Z,64.50
2022-08-26T16:04:12.236Z,64.80
2022-08-26T16:06:41.357Z,65.30
2022-08-26T16:09:09.563Z,65.20
2022-08-26T16:11:38.183Z,65.80
2022-08-26T16:14:06.709Z,65.80
2022-08-26T16:16:36.790Z,66.30
2022-08-26T16:19:07.425Z,66.90
2022-08-26T16:21:36.222Z,66.90
2022-08-26T16:24:05.352Z,67.10
2022-08-26T16:26:34.912Z,67.20
2022-08-26T16:29:04.935Z,67.70
2022-08-26T16:31:32.468Z,68.00
2022-08-26T16:33:59.990Z,67.80
2022-08-26T16:36:28.256Z,68.10
2022-08-26T16:38:56.989Z,68.60
2022-08-26T16:41:27.319Z,68.90
2022-08-26T16:43:55.529Z,69.10
2022-08-26T16:46:25.999Z,69.30
2022-08-26T16:48:57.042Z,69.60
2022-08-26T16:51:27.437Z,69.90
2022-08-26T16:53:57.996Z,70.10
2022-08-26T16:56:33.725Z,70.60
2022-08-26T16:59:05.524Z,70.80
2022-08-26T17:01:33.565Z,70.80
2022-08-26T17:04:01.158Z,71.40
2022-08-26T17:06:29.036Z,71.10
2022-08-26T17:08:56.801Z,71.70
2022-08-26T17:11:24.491Z,71.90
2022-08-26T17:13:52.001Z,72.40
2022-08-26T17:16:23.289Z,72.40
2022-08-26T17:18:54.958Z,72.50
2022-08-26T17:21:22.693Z,72.90
2022-08-26T17:23:50.485Z,73.10
2022-08-26T17:26:18.271Z,73.60
2022-08-26T17:28:45.747Z,74.10
2022-08-26T17:31:13.905Z,73.90
2022-08-26T17:33:41.562Z,74.30
2022-08-26T17:36:10.219Z,74.30
2022-08-26T17:38:38.472Z,74.80
2022-08-26T17:41:11.864Z,74.90
2022-08-26T17:43:40.790Z,75.40
2022-08-26T17:46:11.097Z,75.60
2022-08-26T17:48:40.620Z,75.90
2022-08-26T17:51:13.481Z,76.50
2022-08-26T17:53:42.980Z,77.20
2022-08-26T17:56:13.240Z,77.40
2022-08-26T17:58:51.025Z,77.80
2022-08-26T18:01:23.846Z,78.30
2022-08-26T18:03:51.559Z,78.90
2022-08-26T18:06:21.057Z,79.70
2022-08-26T18:08:48.761Z,80.20
2022-08-26T18:11:19.221Z,80.40
2022-08-26T18:13:47.767Z,80.60
2022-08-26T18:16:17.863Z,80.90
2022-08-26T18:18:45.899Z,81.20
2022-08-26T18:21:20.828Z,81.40
2022-08-26T18:23:50.260Z,81.60
2022-08-26T18:26:25.501Z,81.50
2022-08-26T18:28:53.904Z,81.90
2022-08-26T18:31:22.020Z,81.60
2022-08-26T18:33:49.455Z,81.80
2022-08-26T18:36:19.178Z,81.80
2022-08-26T18:38:48.020Z,82.00
2022-08-26T18:41:20.915Z,81.70
2022-08-26T18:43:50.720Z,82.20
2022-08-26T18:46:20.217Z,82.30
2022-08-26T18:48:51.192Z,82.80
2022-08-26T18:51:30.095Z,82.70
2022-08-26T18:53:58.990Z,83.20
2022-08-26T18:56:27.295Z,83.10
2022-08-26T18:58:55.024Z,83.40
2022-08-26T19:01:27.578Z,83.40
2022-08-26T19:03:59.707Z,83.10
2022-08-26T19:06:32.328Z,83.00
2022-08-26T19:09:01.568Z,83.20
2022-08-26T19:11:32.163Z,84.80
2022-08-26T19:14:10.587Z,85.30
2022-08-26T19:16:39.028Z,85.60
2022-08-26T19:19:07.355Z,85.70
2022-08-26T19:21:36.176Z,85.80
2022-08-26T19:24:07.554Z,85.80
2022-08-26T19:26:37.815Z,86.00
2022-08-26T19:29:06.165Z,85.70
2022-08-26T19:31:34.074Z,85.90
2022-08-26T19:34:01.504Z,86.00
2022-08-26T19:36:29.111Z,85.70
2022-08-26T19:38:57.060Z,85.60
2022-08-26T19:41:36.706Z,85.80
2022-08-26T19:44:13.274Z,86.10
2022-08-26T19:46:41.381Z,86.80
2022-08-26T19:49:08.796Z,86.70
2022-08-26T19:51:37.045Z,86.80
2022-08-26T19:54:05.178Z,86.80
2022-08-26T19:56:32.667Z,86.80
2022-08-26T19:59:00.141Z,86.90
2022-08-26T20:01:27.598Z,86.80
2022-08-26T20:06:23.630Z,86.80
2022-08-26T20:08:52.095Z,86.50
2022-08-26T20:11:24.259Z,86.30
2022-08-26T20:13:51.748Z,86.10
2022-08-26T20:16:19.384Z,86.10
2022-08-26T20:19:05.295Z,86.40
2022-08-26T20:21:36.181Z,86.90
2022-08-26T20:24:11.425Z,86.90
2022-08-26T20:26:41.407Z,87.00
2022-08-26T20:29:10.707Z,87.80
2022-08-26T20:31:38.967Z,88.40
2022-08-26T20:34:07.264Z,88.80
2022-08-26T20:36:35.264Z,89.20
2022-08-26T20:39:02.915Z,89.80
2022-08-26T20:41:30.590Z,90.40
2022-08-26T20:43:58.467Z,90.50
2022-08-26T20:46:26.679Z,90.30
2022-08-26T20:48:54.652Z,90.10
2022-08-26T20:51:25.657Z,90.00
2022-08-26T20:53:53.250Z,89.70
2022-08-26T20:56:24.685Z,89.90
2022-08-26T20:58:54.525Z,89.60
2022-08-26T21:01:25.335Z,89.90
2022-08-26T21:03:54.302Z,89.70
2022-08-26T21:06:22.349Z,89.20
2022-08-26T21:08:50.833Z,88.50
2022-08-26T21:11:18.626Z,88.60
2022-08-26T21:14:03.839Z,89.10
2022-08-26T21:16:32.039Z,89.00
2022-08-26T21:19:00.533Z,88.70
2022-08-26T21:21:28.421Z,89.80
2022-08-26T21:23:56.503Z,89.50
2022-08-26T21:26:24.373Z,90.00
2022-08-26T21:28:51.893Z,90.30
2022-08-26T21:31:22.122Z,90.00
2022-08-26T21:33:51.371Z,91.10
2022-08-26T21:36:20.357Z,91.30
2022-08-26T21:38:47.987Z,92.00
2022-08-26T21:41:19.674Z,92.10
2022-08-26T21:43:49.508Z,92.80
2022-08-26T21:46:22.320Z,92.40
2022-08-26T21:48:52.252Z,92.10
2022-08-26T21:51:23.032Z,91.90
2022-08-26T21:53:54.216Z,92.30
2022-08-26T21:56:23.243Z,92.20
2022-08-26T21:58:52.440Z,92.00
2022-08-26T22:01:23.025Z,92.20
2022-08-26T22:03:53.731Z,91.90
2022-08-26T22:06:27.517Z,91.90
2022-08-26T22:08:56.943Z,91.60
2022-08-26T22:11:27.150Z,91.70
2022-08-26T22:13:57.469Z,92.00
2022-08-26T22:16:27.851Z,92.10
2022-08-26T22:18:55.670Z,92.50
2022-08-26T22:21:26.855Z,92.10
2022-08-26T22:23:58.161Z,92.10
2022-08-26T22:26:29.985Z,92.30
2022-08-26T22:28:59.761Z,92.00
2022-08-26T22:31:37.826Z,91.90
2022-08-26T22:34:13.347Z,92.30
2022-08-26T22:36:44.300Z,92.70
2022-08-26T22:39:14.513Z,92.50
2022-08-26T22:41:44.709Z,92.70
2022-08-26T22:44:13.681Z,92.50
2022-08-26T22:46:42.803Z,93.00
2022-08-26T22:49:12.914Z,93.10
2022-08-26T22:51:40.542Z,93.10
2022-08-26T22:54:08.310Z,93.20
2022-08-26T22:56:38.439Z,93.50
2022-08-26T22:59:09.114Z,93.70
2022-08-26T23:01:39.356Z,93.20
2022-08-26T23:04:08.358Z,92.80
2022-08-26T23:06:41.526Z,92.50
2022-08-26T23:09:11.474Z,92.70
2022-08-26T23:11:42.426Z,92.30
2022-08-26T23:14:10.166Z,93.80
2022-08-26T23:16:44.322Z,93.90
2022-08-26T23:19:14.790Z,94.20
2022-08-26T23:21:43.528Z,94.20
2022-08-26T23:24:12.458Z,94.70
2022-08-26T23:26:41.919Z,95.30
2022-08-26T23:29:11.634Z,95.50
2022-08-26T23:31:41.186Z,95.40
2022-08-26T23:34:29.361Z,96.20
2022-08-26T23:36:58.347Z,96.30
2022-08-26T23:39:26.971Z,96.50
2022-08-26T23:41:54.928Z,96.50
2022-08-26T23:44:22.775Z,96.70
2022-08-26T23:46:50.751Z,96.50
2022-08-26T23:49:18.622Z,96.40
2022-08-26T23:52:04.711Z,96.20
2022-08-26T23:54:33.678Z,96.30
2022-08-26T23:57:01.273Z,96.00
2022-08-26T23:59:28.870Z,96.10
